sensor_id;sensor_type;location;lat;lon;timestamp;P1;durP1;ratioP1;P2;durP2;ratioP2
27145;SDS011;17980;51.744;7.190;2023-04-24T00:00:31;1.23;;;0.70;;
27145;SDS011;17980;51.744;7.190;2023-04-24T00:02:58;1.87;;;0.47;;
27145;SDS011;17980;51.744;7.190;2023-04-24T00:05:26;0.60;;;0.60;;
27145;SDS011;17980;51.744;7.190;2023-04-24T00:08:03;1.43;;;0.37;;
27145;SDS011;17980;51.744;7.190;2023-04-24T00:10:30;1.90;;;0.30;;
27145;SDS011;17980;51.744;7.190;2023-04-24T00:12:57;0.97;;;0.47;;
27145;SDS011;17980;51.744;7.190;2023-04-24T00:15:25;1.13;;;0.30;;
27145;SDS011;17980;51.744;7.190;2023-04-24T00:18:02;0.70;;;0.40;;
27145;SDS011;17980;51.744;7.190;2023-04-24T00:20:29;1.33;;;0.30;;
27145;SDS011;17980;51.744;7.190;2023-04-24T00:25:34;0.50;;;0.30;;
27145;SDS011;17980;51.744;7.190;2023-04-24T00:28:01;0.30;;;0.30;;
27145;SDS011;17980;51.744;7.190;2023-04-24T00:30:38;0.70;;;0.30;;
27145;SDS011;17980;51.744;7.190;2023-04-24T00:33:06;0.50;;;0.40;;
27145;SDS011;17980;51.744;7.190;2023-04-24T00:35:34;0.80;;;0.37;;
27145;SDS011;17980;51.744;7.190;2023-04-24T00:38:11;0.30;;;0.30;;
27145;SDS011;17980;51.744;7.190;2023-04-24T00:40:38;0.90;;;0.40;;
27145;SDS011;17980;51.744;7.190;2023-04-24T00:43:15;0.43;;;0.30;;
27145;SDS011;17980;51.744;7.190;2023-04-24T00:45:42;1.67;;;0.50;;
27145;SDS011;17980;51.744;7.190;2023-04-24T00:48:19;0.63;;;0.40;;
27145;SDS011;17980;51.744;7.190;2023-04-24T00:50:47;0.77;;;0.47;;
27145;SDS011;17980;51.744;7.190;2023-04-24T00:53:14;1.73;;;0.57;;
27145;SDS011;17980;51.744;7.190;2023-04-24T00:55:42;2.17;;;0.60;;
27145;SDS011;17980;51.744;7.190;2023-04-24T00:58:19;0.53;;;0.50;;
27145;SDS011;17980;51.744;7.190;2023-04-24T01:00:46;0.77;;;0.50;;
27145;SDS011;17980;51.744;7.190;2023-04-24T01:03:16;1.57;;;0.70;;
27145;SDS011;17980;51.744;7.190;2023-04-24T01:05:54;1.57;;;0.70;;
27145;SDS011;17980;51.744;7.190;2023-04-24T01:08:22;0.53;;;0.53;;
27145;SDS011;17980;51.744;7.190;2023-04-24T01:10:59;2.50;;;0.50;;
27145;SDS011;17980;51.744;7.190;2023-04-24T01:13:29;1.03;;;0.67;;
27145;SDS011;17980;51.744;7.190;2023-04-24T01:15:57;4.23;;;0.53;;
27145;SDS011;17980;51.744;7.190;2023-04-24T01:18:39;2.60;;;0.67;;
27145;SDS011;17980;51.744;7.190;2023-04-24T01:21:08;1.83;;;0.50;;
27145;SDS011;17980;51.744;7.190;2023-04-24T01:23:37;0.77;;;0.60;;
27145;SDS011;17980;51.744;7.190;2023-04-24T01:26:04;3.47;;;0.60;;
27145;SDS011;17980;51.744;7.190;2023-04-24T01:28:42;1.20;;;0.80;;
27145;SDS011;17980;51.744;7.190;2023-04-24T01:31:10;1.17;;;0.70;;
27145;SDS011;17980;51.744;7.190;2023-04-24T01:33:47;2.50;;;0.67;;
27145;SDS011;17980;51.744;7.190;2023-04-24T01:36:15;0.60;;;0.50;;
27145;SDS011;17980;51.744;7.190;2023-04-24T01:38:52;1.27;;;0.80;;
27145;SDS011;17980;51.744;7.190;2023-04-24T01:41:20;1.00;;;0.80;;
27145;SDS011;17980;51.744;7.190;2023-04-24T01:43:48;1.83;;;0.90;;
27145;SDS011;17980;51.744;7.190;2023-04-24T01:46:16;1.57;;;0.70;;
27145;SDS011;17980;51.744;7.190;2023-04-24T01:48:53;2.30;;;0.90;;
27145;SDS011;17980;51.744;7.190;2023-04-24T01:51:22;1.70;;;1.00;;
27145;SDS011;17980;51.744;7.190;2023-04-24T01:53:49;1.37;;;1.17;;
27145;SDS011;17980;51.744;7.190;2023-04-24T01:56:16;2.03;;;0.90;;
27145;SDS011;17980;51.744;7.190;2023-04-24T01:58:54;2.23;;;1.00;;
27145;SDS011;17980;51.744;7.190;2023-04-24T02:01:22;2.07;;;0.90;;
27145;SDS011;17980;51.744;7.190;2023-04-24T02:03:51;1.70;;;1.30;;
27145;SDS011;17980;51.744;7.190;2023-04-24T02:06:18;2.20;;;1.30;;
27145;SDS011;17980;51.744;7.190;2023-04-24T02:08:55;2.20;;;1.90;;
27145;SDS011;17980;51.744;7.190;2023-04-24T02:11:22;3.20;;;1.80;;
27145;SDS011;17980;51.744;7.190;2023-04-24T02:13:49;3.07;;;2.13;;
27145;SDS011;17980;51.744;7.190;2023-04-24T02:16:27;2.60;;;2.40;;
27145;SDS011;17980;51.744;7.190;2023-04-24T02:18:58;4.87;;;2.80;;
27145;SDS011;17980;51.744;7.190;2023-04-24T02:21:35;4.63;;;2.83;;
27145;SDS011;17980;51.744;7.190;2023-04-24T02:24:02;4.40;;;3.20;;
27145;SDS011;17980;51.744;7.190;2023-04-24T02:26:30;6.57;;;3.87;;
27145;SDS011;17980;51.744;7.190;2023-04-24T02:29:07;5.47;;;3.37;;
27145;SDS011;17980;51.744;7.190;2023-04-24T02:31:34;5.27;;;2.97;;
27145;SDS011;17980;51.744;7.190;2023-04-24T02:34:11;5.53;;;3.20;;
27145;SDS011;17980;51.744;7.190;2023-04-24T02:36:38;7.70;;;4.50;;
27145;SDS011;17980;51.744;7.190;2023-04-24T02:39:15;4.33;;;3.30;;
27145;SDS011;17980;51.744;7.190;2023-04-24T02:41:43;5.93;;;3.83;;
27145;SDS011;17980;51.744;7.190;2023-04-24T02:44:10;4.70;;;4.13;;
27145;SDS011;17980;51.744;7.190;2023-04-24T02:46:38;6.60;;;4.27;;
27145;SDS011;17980;51.744;7.190;2023-04-24T02:49:14;4.00;;;3.50;;
27145;SDS011;17980;51.744;7.190;2023-04-24T02:51:42;7.85;;;4.20;;
27145;SDS011;17980;51.744;7.190;2023-04-24T02:54:09;4.77;;;4.23;;
27145;SDS011;17980;51.744;7.190;2023-04-24T02:56:36;5.00;;;4.60;;
27145;SDS011;17980;51.744;7.190;2023-04-24T02:59:03;6.17;;;5.07;;
27145;SDS011;17980;51.744;7.190;2023-04-24T03:01:31;6.30;;;4.87;;
27145;SDS011;17980;51.744;7.190;2023-04-24T03:03:58;6.90;;;5.90;;
27145;SDS011;17980;51.744;7.190;2023-04-24T03:06:35;7.57;;;6.57;;
27145;SDS011;17980;51.744;7.190;2023-04-24T03:09:02;8.33;;;6.70;;
27145;SDS011;17980;51.744;7.190;2023-04-24T03:11:30;7.53;;;6.87;;
27145;SDS011;17980;51.744;7.190;2023-04-24T03:13:57;7.83;;;6.90;;
27145;SDS011;17980;51.744;7.190;2023-04-24T03:16:34;10.13;;;7.03;;
27145;SDS011;17980;51.744;7.190;2023-04-24T03:19:01;10.23;;;8.00;;
27145;SDS011;17980;51.744;7.190;2023-04-24T03:21:29;9.47;;;8.57;;
27145;SDS011;17980;51.744;7.190;2023-04-24T03:24:06;10.70;;;8.13;;
27145;SDS011;17980;51.744;7.190;2023-04-24T03:26:33;9.40;;;8.40;;
27145;SDS011;17980;51.744;7.190;2023-04-24T03:29:01;10.53;;;9.27;;
27145;SDS011;17980;51.744;7.190;2023-04-24T03:31:29;10.07;;;8.93;;
27145;SDS011;17980;51.744;7.190;2023-04-24T03:33:56;12.17;;;9.90;;
27145;SDS011;17980;51.744;7.190;2023-04-24T03:36:33;9.87;;;9.00;;
27145;SDS011;17980;51.744;7.190;2023-04-24T03:39:00;11.17;;;10.03;;
27145;SDS011;17980;51.744;7.190;2023-04-24T03:41:28;13.03;;;9.20;;
27145;SDS011;17980;51.744;7.190;2023-04-24T03:43:56;11.70;;;9.90;;
27145;SDS011;17980;51.744;7.190;2023-04-24T03:46:33;11.30;;;9.90;;
27145;SDS011;17980;51.744;7.190;2023-04-24T03:49:00;14.47;;;10.17;;
27145;SDS011;17980;51.744;7.190;2023-04-24T03:51:27;13.10;;;9.50;;
27145;SDS011;17980;51.744;7.190;2023-04-24T03:53:56;10.87;;;9.13;;
27145;SDS011;17980;51.744;7.190;2023-04-24T03:56:32;14.33;;;10.40;;
27145;SDS011;17980;51.744;7.190;2023-04-24T03:59:00;12.47;;;10.73;;
27145;SDS011;17980;51.744;7.190;2023-04-24T04:01:28;11.30;;;9.77;;
27145;SDS011;17980;51.744;7.190;2023-04-24T04:03:56;12.77;;;10.40;;
27145;SDS011;17980;51.744;7.190;2023-04-24T04:06:33;13.97;;;10.63;;
27145;SDS011;17980;51.744;7.190;2023-04-24T04:09:01;13.17;;;10.63;;
27145;SDS011;17980;51.744;7.190;2023-04-24T04:11:29;13.70;;;10.17;;
27145;SDS011;17980;51.744;7.190;2023-04-24T04:13:57;12.70;;;11.23;;
27145;SDS011;17980;51.744;7.190;2023-04-24T04:16:34;11.80;;;10.10;;
27145;SDS011;17980;51.744;7.190;2023-04-24T04:19:02;12.77;;;10.23;;
27145;SDS011;17980;51.744;7.190;2023-04-24T04:21:29;13.27;;;11.20;;
27145;SDS011;17980;51.744;7.190;2023-04-24T04:23:57;16.07;;;11.20;;
27145;SDS011;17980;51.744;7.190;2023-04-24T04:26:34;14.40;;;11.20;;
27145;SDS011;17980;51.744;7.190;2023-04-24T04:29:03;13.03;;;11.00;;
27145;SDS011;17980;51.744;7.190;2023-04-24T04:31:32;15.23;;;11.30;;
27145;SDS011;17980;51.744;7.190;2023-04-24T04:33:59;13.23;;;10.70;;
27145;SDS011;17980;51.744;7.190;2023-04-24T04:36:36;14.13;;;11.17;;
27145;SDS011;17980;51.744;7.190;2023-04-24T04:39:05;15.50;;;11.07;;
27145;SDS011;17980;51.744;7.190;2023-04-24T04:41:33;13.70;;;10.67;;
27145;SDS011;17980;51.744;7.190;2023-04-24T04:44:01;13.47;;;10.67;;
27145;SDS011;17980;51.744;7.190;2023-04-24T04:46:37;18.20;;;11.27;;
27145;SDS011;17980;51.744;7.190;2023-04-24T04:49:05;11.87;;;10.00;;
27145;SDS011;17980;51.744;7.190;2023-04-24T04:51:34;13.23;;;11.00;;
27145;SDS011;17980;51.744;7.190;2023-04-24T04:54:01;17.00;;;11.13;;
27145;SDS011;17980;51.744;7.190;2023-04-24T04:56:38;11.63;;;10.43;;
27145;SDS011;17980;51.744;7.190;2023-04-24T04:59:05;15.13;;;10.00;;
27145;SDS011;17980;51.744;7.190;2023-04-24T05:01:32;12.00;;;9.40;;
27145;SDS011;17980;51.744;7.190;2023-04-24T05:04:00;11.40;;;9.60;;
27145;SDS011;17980;51.744;7.190;2023-04-24T05:06:37;10.77;;;9.70;;
27145;SDS011;17980;51.744;7.190;2023-04-24T05:09:05;13.37;;;9.67;;
27145;SDS011;17980;51.744;7.190;2023-04-24T05:11:33;17.73;;;10.30;;
27145;SDS011;17980;51.744;7.190;2023-04-24T05:14:00;11.77;;;9.43;;
27145;SDS011;17980;51.744;7.190;2023-04-24T05:16:37;15.57;;;10.03;;
27145;SDS011;17980;51.744;7.190;2023-04-24T05:19:05;14.83;;;10.57;;
27145;SDS011;17980;51.744;7.190;2023-04-24T05:21:32;10.57;;;9.47;;
27145;SDS011;17980;51.744;7.190;2023-04-24T05:24:09;8.77;;;7.87;;
27145;SDS011;17980;51.744;7.190;2023-04-24T05:26:36;10.73;;;8.27;;
27145;SDS011;17980;51.744;7.190;2023-04-24T05:29:04;14.20;;;8.97;;
27145;SDS011;17980;51.744;7.190;2023-04-24T05:31:31;10.47;;;8.17;;
27145;SDS011;17980;51.744;7.190;2023-04-24T05:33:58;12.60;;;8.77;;
27145;SDS011;17980;51.744;7.190;2023-04-24T05:36:35;9.13;;;7.83;;
27145;SDS011;17980;51.744;7.190;2023-04-24T05:39:03;14.10;;;9.03;;
27145;SDS011;17980;51.744;7.190;2023-04-24T05:41:32;12.70;;;9.03;;
27145;SDS011;17980;51.744;7.190;2023-04-24T05:43:59;11.23;;;7.73;;
27145;SDS011;17980;51.744;7.190;2023-04-24T05:46:36;9.33;;;7.73;;
27145;SDS011;17980;51.744;7.190;2023-04-24T05:49:03;9.93;;;8.93;;
27145;SDS011;17980;51.744;7.190;2023-04-24T05:51:30;9.93;;;8.70;;
27145;SDS011;17980;51.744;7.190;2023-04-24T05:53:58;8.60;;;7.27;;
27145;SDS011;17980;51.744;7.190;2023-04-24T05:56:40;10.33;;;7.40;;
27145;SDS011;17980;51.744;7.190;2023-04-24T05:59:08;16.03;;;11.80;;
27145;SDS011;17980;51.744;7.190;2023-04-24T06:04:21;11.37;;;6.93;;
27145;SDS011;17980;51.744;7.190;2023-04-24T06:06:48;10.03;;;7.00;;
27145;SDS011;17980;51.744;7.190;2023-04-24T06:09:18;8.10;;;7.10;;
27145;SDS011;17980;51.744;7.190;2023-04-24T06:11:45;7.50;;;6.30;;
27145;SDS011;17980;51.744;7.190;2023-04-24T06:14:23;8.70;;;7.43;;
27145;SDS011;17980;51.744;7.190;2023-04-24T06:16:51;9.57;;;6.63;;
27145;SDS011;17980;51.744;7.190;2023-04-24T06:19:18;10.23;;;7.53;;
27145;SDS011;17980;51.744;7.190;2023-04-24T06:21:45;11.30;;;8.27;;
27145;SDS011;17980;51.744;7.190;2023-04-24T06:24:24;9.20;;;8.30;;
27145;SDS011;17980;51.744;7.190;2023-04-24T06:26:54;9.07;;;8.10;;
27145;SDS011;17980;51.744;7.190;2023-04-24T06:29:22;9.63;;;8.70;;
27145;SDS011;17980;51.744;7.190;2023-04-24T06:31:50;8.30;;;7.50;;
27145;SDS011;17980;51.744;7.190;2023-04-24T06:34:27;8.23;;;7.53;;
27145;SDS011;17980;51.744;7.190;2023-04-24T06:36:56;8.63;;;7.67;;
27145;SDS011;17980;51.744;7.190;2023-04-24T06:39:23;8.97;;;7.77;;
27145;SDS011;17980;51.744;7.190;2023-04-24T06:41:50;8.47;;;7.60;;
27145;SDS011;17980;51.744;7.190;2023-04-24T06:44:27;9.13;;;8.10;;
27145;SDS011;17980;51.744;7.190;2023-04-24T06:46:54;8.97;;;8.07;;
27145;SDS011;17980;51.744;7.190;2023-04-24T06:49:21;8.27;;;7.50;;
27145;SDS011;17980;51.744;7.190;2023-04-24T06:51:50;9.67;;;7.27;;
27145;SDS011;17980;51.744;7.190;2023-04-24T06:54:27;10.80;;;7.33;;
27145;SDS011;17980;51.744;7.190;2023-04-24T06:56:55;8.40;;;7.60;;
27145;SDS011;17980;51.744;7.190;2023-04-24T06:59:23;8.43;;;7.60;;
27145;SDS011;17980;51.744;7.190;2023-04-24T07:04:26;10.33;;;7.17;;
27145;SDS011;17980;51.744;7.190;2023-04-24T07:06:54;8.23;;;6.43;;
27145;SDS011;17980;51.744;7.190;2023-04-24T07:09:23;9.30;;;6.63;;
27145;SDS011;17980;51.744;7.190;2023-04-24T07:11:51;6.53;;;5.93;;
27145;SDS011;17980;51.744;7.190;2023-04-24T07:14:28;6.27;;;5.63;;
27145;SDS011;17980;51.744;7.190;2023-04-24T07:17:11;5.60;;;5.10;;
27145;SDS011;17980;51.744;7.190;2023-04-24T07:19:39;6.17;;;5.63;;
27145;SDS011;17980;51.744;7.190;2023-04-24T07:22:06;6.00;;;5.43;;
27145;SDS011;17980;51.744;7.190;2023-04-24T07:24:43;6.37;;;5.07;;
27145;SDS011;17980;51.744;7.190;2023-04-24T07:27:11;4.70;;;4.30;;
27145;SDS011;17980;51.744;7.190;2023-04-24T07:29:40;5.43;;;4.30;;
27145;SDS011;17980;51.744;7.190;2023-04-24T07:34:43;4.80;;;4.40;;
27145;SDS011;17980;51.744;7.190;2023-04-24T07:37:11;4.93;;;4.53;;
27145;SDS011;17980;51.744;7.190;2023-04-24T07:39:38;4.63;;;4.23;;
27145;SDS011;17980;51.744;7.190;2023-04-24T07:42:05;5.17;;;3.87;;
27145;SDS011;17980;51.744;7.190;2023-04-24T07:44:42;8.00;;;3.73;;
27145;SDS011;17980;51.744;7.190;2023-04-24T07:47:09;5.00;;;4.10;;
27145;SDS011;17980;51.744;7.190;2023-04-24T07:49:46;4.13;;;3.43;;
27145;SDS011;17980;51.744;7.190;2023-04-24T07:52:14;5.13;;;3.10;;
27145;SDS011;17980;51.744;7.190;2023-04-24T07:55:00;3.70;;;2.80;;
27145;SDS011;17980;51.744;7.190;2023-04-24T07:57:28;3.00;;;2.70;;
27145;SDS011;17980;51.744;7.190;2023-04-24T07:59:55;4.73;;;2.50;;
27145;SDS011;17980;51.744;7.190;2023-04-24T08:02:23;3.17;;;2.70;;
27145;SDS011;17980;51.744;7.190;2023-04-24T08:05:00;3.10;;;2.27;;
27145;SDS011;17980;51.744;7.190;2023-04-24T08:07:28;2.43;;;2.23;;
27145;SDS011;17980;51.744;7.190;2023-04-24T08:10:07;2.80;;;1.83;;
27145;SDS011;17980;51.744;7.190;2023-04-24T08:12:44;1.97;;;1.77;;
27145;SDS011;17980;51.744;7.190;2023-04-24T08:15:11;3.20;;;1.60;;
27145;SDS011;17980;51.744;7.190;2023-04-24T08:17:48;2.63;;;1.70;;
27145;SDS011;17980;51.744;7.190;2023-04-24T08:20:16;1.53;;;1.40;;
27145;SDS011;17980;51.744;7.190;2023-04-24T08:22:43;1.40;;;1.30;;
27145;SDS011;17980;51.744;7.190;2023-04-24T08:25:20;1.30;;;1.20;;
27145;SDS011;17980;51.744;7.190;2023-04-24T08:27:48;5.63;;;3.20;;
27145;SDS011;17980;51.744;7.190;2023-04-24T08:30:16;1.70;;;0.80;;
27145;SDS011;17980;51.744;7.190;2023-04-24T08:32:43;2.80;;;1.67;;
27145;SDS011;17980;51.744;7.190;2023-04-24T08:35:20;4.93;;;1.00;;
27145;SDS011;17980;51.744;7.190;2023-04-24T08:37:48;1.63;;;1.20;;
27145;SDS011;17980;51.744;7.190;2023-04-24T08:40:16;2.50;;;1.10;;
27145;SDS011;17980;51.744;7.190;2023-04-24T08:42:43;1.03;;;0.93;;
27145;SDS011;17980;51.744;7.190;2023-04-24T08:45:20;2.87;;;0.87;;
27145;SDS011;17980;51.744;7.190;2023-04-24T08:47:47;1.93;;;0.93;;
27145;SDS011;17980;51.744;7.190;2023-04-24T08:50:15;1.53;;;0.90;;
27145;SDS011;17980;51.744;7.190;2023-04-24T08:52:52;1.10;;;0.90;;
27145;SDS011;17980;51.744;7.190;2023-04-24T08:55:20;0.80;;;0.80;;
27145;SDS011;17980;51.744;7.190;2023-04-24T08:57:57;1.47;;;0.90;;
27145;SDS011;17980;51.744;7.190;2023-04-24T09:00:25;1.13;;;1.00;;
27145;SDS011;17980;51.744;7.190;2023-04-24T09:02:53;1.10;;;1.00;;
27145;SDS011;17980;51.744;7.190;2023-04-24T09:05:36;1.47;;;1.07;;
27145;SDS011;17980;51.744;7.190;2023-04-24T09:08:04;1.40;;;0.93;;
27145;SDS011;17980;51.744;7.190;2023-04-24T09:10:41;1.83;;;1.20;;
27145;SDS011;17980;51.744;7.190;2023-04-24T09:13:10;1.63;;;1.00;;
27145;SDS011;17980;51.744;7.190;2023-04-24T09:15:37;2.77;;;1.03;;
27145;SDS011;17980;51.744;7.190;2023-04-24T09:18:20;1.03;;;1.00;;
27145;SDS011;17980;51.744;7.190;2023-04-24T09:20:57;1.20;;;1.10;;
27145;SDS011;17980;51.744;7.190;2023-04-24T09:23:26;0.90;;;0.90;;
27145;SDS011;17980;51.744;7.190;2023-04-24T09:25:54;1.10;;;1.00;;
27145;SDS011;17980;51.744;7.190;2023-04-24T09:28:32;1.20;;;1.10;;
27145;SDS011;17980;51.744;7.190;2023-04-24T09:31:05;1.37;;;1.27;;
27145;SDS011;17980;51.744;7.190;2023-04-24T09:33:35;1.83;;;1.63;;
27145;SDS011;17980;51.744;7.190;2023-04-24T09:36:02;1.93;;;1.80;;
27145;SDS011;17980;51.744;7.190;2023-04-24T09:38:39;1.83;;;1.60;;
27145;SDS011;17980;51.744;7.190;2023-04-24T09:41:07;1.73;;;1.50;;
27145;SDS011;17980;51.744;7.190;2023-04-24T09:46:12;1.83;;;1.73;;
27145;SDS011;17980;51.744;7.190;2023-04-24T09:48:40;2.13;;;1.50;;
27145;SDS011;17980;51.744;7.190;2023-04-24T09:51:32;1.60;;;1.50;;
27145;SDS011;17980;51.744;7.190;2023-04-24T09:54:01;1.77;;;1.67;;
27145;SDS011;17980;51.744;7.190;2023-04-24T09:56:39;3.57;;;1.57;;
27145;SDS011;17980;51.744;7.190;2023-04-24T09:59:09;1.57;;;1.47;;
27145;SDS011;17980;51.744;7.190;2023-04-24T10:01:46;1.87;;;1.70;;
27145;SDS011;17980;51.744;7.190;2023-04-24T10:04:18;1.60;;;1.50;;
27145;SDS011;17980;51.744;7.190;2023-04-24T10:06:56;1.80;;;1.67;;
27145;SDS011;17980;51.744;7.190;2023-04-24T10:09:24;2.73;;;2.40;;
27145;SDS011;17980;51.744;7.190;2023-04-24T10:11:53;5.73;;;4.60;;
27145;SDS011;17980;51.744;7.190;2023-04-24T10:14:21;6.83;;;4.43;;
27145;SDS011;17980;51.744;7.190;2023-04-24T10:16:58;5.40;;;4.90;;
27145;SDS011;17980;51.744;7.190;2023-04-24T10:19:26;7.43;;;4.30;;
27145;SDS011;17980;51.744;7.190;2023-04-24T10:21:56;6.20;;;5.60;;
27145;SDS011;17980;51.744;7.190;2023-04-24T10:24:24;5.33;;;4.33;;
27145;SDS011;17980;51.744;7.190;2023-04-24T10:27:02;6.50;;;5.83;;
27145;SDS011;17980;51.744;7.190;2023-04-24T10:29:31;8.17;;;5.10;;
27145;SDS011;17980;51.744;7.190;2023-04-24T10:32:01;7.97;;;5.33;;
27145;SDS011;17980;51.744;7.190;2023-04-24T10:34:28;11.80;;;9.13;;
27145;SDS011;17980;51.744;7.190;2023-04-24T10:37:05;10.80;;;8.40;;
27145;SDS011;17980;51.744;7.190;2023-04-24T10:39:32;11.13;;;9.53;;
27145;SDS011;17980;51.744;7.190;2023-04-24T10:42:01;8.53;;;6.17;;
27145;SDS011;17980;51.744;7.190;2023-04-24T10:44:39;24.83;;;22.13;;
27145;SDS011;17980;51.744;7.190;2023-04-24T10:47:07;19.40;;;17.40;;
27145;SDS011;17980;51.744;7.190;2023-04-24T10:49:49;7.03;;;6.10;;
27145;SDS011;17980;51.744;7.190;2023-04-24T10:52:17;5.23;;;4.70;;
27145;SDS011;17980;51.744;7.190;2023-04-24T10:54:55;9.17;;;6.03;;
27145;SDS011;17980;51.744;7.190;2023-04-24T10:57:28;8.63;;;5.67;;
27145;SDS011;17980;51.744;7.190;2023-04-24T11:00:15;11.10;;;4.83;;
27145;SDS011;17980;51.744;7.190;2023-04-24T11:02:45;12.27;;;6.33;;
27145;SDS011;17980;51.744;7.190;2023-04-24T11:05:22;16.53;;;9.40;;
27145;SDS011;17980;51.744;7.190;2023-04-24T11:08:11;15.13;;;9.17;;
27145;SDS011;17980;51.744;7.190;2023-04-24T11:10:56;13.90;;;10.50;;
27145;SDS011;17980;51.744;7.190;2023-04-24T11:13:22;12.73;;;5.40;;
27145;SDS011;17980;51.744;7.190;2023-04-24T11:18:51;11.00;;;7.50;;
27145;SDS011;17980;51.744;7.190;2023-04-24T11:21:20;9.37;;;8.40;;
27145;SDS011;17980;51.744;7.190;2023-04-24T11:23:49;8.13;;;4.07;;
27145;SDS011;17980;51.744;7.190;2023-04-24T11:28:55;14.10;;;5.97;;
27145;SDS011;17980;51.744;7.190;2023-04-24T11:31:40;12.57;;;3.30;;
27145;SDS011;17980;51.744;7.190;2023-04-24T11:34:12;10.37;;;4.20;;
27145;SDS011;17980;51.744;7.190;2023-04-24T11:36:42;10.27;;;3.93;;
27145;SDS011;17980;51.744;7.190;2023-04-24T11:39:21;11.40;;;3.43;;
27145;SDS011;17980;51.744;7.190;2023-04-24T11:41:48;9.47;;;4.70;;
27145;SDS011;17980;51.744;7.190;2023-04-24T11:44:26;12.00;;;3.43;;
27145;SDS011;17980;51.744;7.190;2023-04-24T11:46:56;8.83;;;3.43;;
27145;SDS011;17980;51.744;7.190;2023-04-24T11:49:33;11.23;;;4.20;;
27145;SDS011;17980;51.744;7.190;2023-04-24T11:52:02;9.80;;;3.60;;
27145;SDS011;17980;51.744;7.190;2023-04-24T11:54:30;12.67;;;3.80;;
27145;SDS011;17980;51.744;7.190;2023-04-24T11:57:08;11.20;;;3.70;;
27145;SDS011;17980;51.744;7.190;2023-04-24T11:59:36;7.53;;;2.60;;
27145;SDS011;17980;51.744;7.190;2023-04-24T12:02:20;7.70;;;3.13;;
27145;SDS011;17980;51.744;7.190;2023-04-24T12:04:51;10.70;;;3.13;;
27145;SDS011;17980;51.744;7.190;2023-04-24T12:07:28;10.97;;;3.50;;
27145;SDS011;17980;51.744;7.190;2023-04-24T12:09:56;15.47;;;3.90;;
27145;SDS011;17980;51.744;7.190;2023-04-24T12:12:25;9.13;;;2.83;;
27145;SDS011;17980;51.744;7.190;2023-04-24T12:14:54;9.03;;;2.57;;
27145;SDS011;17980;51.744;7.190;2023-04-24T12:17:31;7.50;;;2.53;;
27145;SDS011;17980;51.744;7.190;2023-04-24T12:20:00;8.30;;;2.40;;
27145;SDS011;17980;51.744;7.190;2023-04-24T12:22:36;7.07;;;1.77;;
27145;SDS011;17980;51.744;7.190;2023-04-24T12:25:12;5.57;;;2.33;;
27145;SDS011;17980;51.744;7.190;2023-04-24T12:27:52;8.60;;;2.43;;
27145;SDS011;17980;51.744;7.190;2023-04-24T12:30:21;5.17;;;2.20;;
27145;SDS011;17980;51.744;7.190;2023-04-24T12:32:54;13.10;;;2.37;;
27145;SDS011;17980;51.744;7.190;2023-04-24T12:35:23;8.20;;;3.77;;
27145;SDS011;17980;51.744;7.190;2023-04-24T12:38:05;6.73;;;1.90;;
27145;SDS011;17980;51.744;7.190;2023-04-24T12:40:33;6.57;;;2.20;;
27145;SDS011;17980;51.744;7.190;2023-04-24T12:43:13;8.43;;;1.80;;
27145;SDS011;17980;51.744;7.190;2023-04-24T12:45:42;9.50;;;2.00;;
27145;SDS011;17980;51.744;7.190;2023-04-24T12:48:18;6.03;;;1.23;;
27145;SDS011;17980;51.744;7.190;2023-04-24T12:50:47;4.73;;;1.67;;
27145;SDS011;17980;51.744;7.190;2023-04-24T12:53:14;5.23;;;1.07;;
27145;SDS011;17980;51.744;7.190;2023-04-24T12:58:17;5.17;;;1.10;;
27145;SDS011;17980;51.744;7.190;2023-04-24T13:00:55;2.50;;;0.70;;
27145;SDS011;17980;51.744;7.190;2023-04-24T13:03:23;4.70;;;0.80;;
27145;SDS011;17980;51.744;7.190;2023-04-24T13:05:50;2.77;;;1.00;;
27145;SDS011;17980;51.744;7.190;2023-04-24T13:08:27;4.70;;;0.80;;
27145;SDS011;17980;51.744;7.190;2023-04-24T13:10:54;5.40;;;1.00;;
27145;SDS011;17980;51.744;7.190;2023-04-24T13:13:22;3.87;;;0.90;;
27145;SDS011;17980;51.744;7.190;2023-04-24T13:15:49;3.90;;;1.10;;
27145;SDS011;17980;51.744;7.190;2023-04-24T13:18:26;8.40;;;1.10;;
27145;SDS011;17980;51.744;7.190;2023-04-24T13:20:53;4.43;;;1.13;;
27145;SDS011;17980;51.744;7.190;2023-04-24T13:23:30;3.03;;;0.67;;
27145;SDS011;17980;51.744;7.190;2023-04-24T13:25:57;2.50;;;0.70;;
27145;SDS011;17980;51.744;7.190;2023-04-24T13:28:34;2.47;;;0.80;;
27145;SDS011;17980;51.744;7.190;2023-04-24T13:31:02;2.30;;;0.50;;
27145;SDS011;17980;51.744;7.190;2023-04-24T13:33:29;1.50;;;0.60;;
27145;SDS011;17980;51.744;7.190;2023-04-24T13:38:36;1.37;;;0.63;;
27145;SDS011;17980;51.744;7.190;2023-04-24T13:43:40;2.30;;;0.77;;
27145;SDS011;17980;51.744;7.190;2023-04-24T13:46:08;2.70;;;0.90;;
27145;SDS011;17980;51.744;7.190;2023-04-24T13:48:45;3.00;;;0.80;;
27145;SDS011;17980;51.744;7.190;2023-04-24T13:51:12;2.17;;;0.60;;
27145;SDS011;17980;51.744;7.190;2023-04-24T13:53:40;3.67;;;0.97;;
27145;SDS011;17980;51.744;7.190;2023-04-24T13:56:07;2.67;;;0.90;;
27145;SDS011;17980;51.744;7.190;2023-04-24T13:58:45;1.50;;;0.70;;
27145;SDS011;17980;51.744;7.190;2023-04-24T14:01:13;1.10;;;0.70;;
27145;SDS011;17980;51.744;7.190;2023-04-24T14:03:50;6.47;;;1.10;;
27145;SDS011;17980;51.744;7.190;2023-04-24T14:06:18;2.93;;;1.20;;
27145;SDS011;17980;51.744;7.190;2023-04-24T14:08:46;3.67;;;1.30;;
27145;SDS011;17980;51.744;7.190;2023-04-24T14:11:23;3.23;;;1.67;;
27145;SDS011;17980;51.744;7.190;2023-04-24T14:13:52;3.13;;;1.43;;
27145;SDS011;17980;51.744;7.190;2023-04-24T14:16:23;3.30;;;1.70;;
27145;SDS011;17980;51.744;7.190;2023-04-24T14:19:04;2.60;;;2.27;;
27145;SDS011;17980;51.744;7.190;2023-04-24T14:21:32;8.50;;;5.23;;
27145;SDS011;17980;51.744;7.190;2023-04-24T14:23:59;6.33;;;5.67;;
27145;SDS011;17980;51.744;7.190;2023-04-24T14:26:29;2.87;;;1.50;;
27145;SDS011;17980;51.744;7.190;2023-04-24T14:29:10;4.77;;;1.00;;
27145;SDS011;17980;51.744;7.190;2023-04-24T14:31:38;11.10;;;5.73;;
27145;SDS011;17980;51.744;7.190;2023-04-24T14:34:13;5.60;;;3.27;;
27145;SDS011;17980;51.744;7.190;2023-04-24T14:36:43;5.63;;;2.67;;
27145;SDS011;17980;51.744;7.190;2023-04-24T14:42:14;3.47;;;1.83;;
27145;SDS011;17980;51.744;7.190;2023-04-24T14:44:45;2.50;;;1.33;;
27145;SDS011;17980;51.744;7.190;2023-04-24T14:47:32;2.60;;;0.87;;
27145;SDS011;17980;51.744;7.190;2023-04-24T14:50:01;4.13;;;2.90;;
27145;SDS011;17980;51.744;7.190;2023-04-24T14:52:42;18.03;;;11.00;;
27145;SDS011;17980;51.744;7.190;2023-04-24T14:55:10;7.63;;;5.27;;
27145;SDS011;17980;51.744;7.190;2023-04-24T14:57:54;4.53;;;2.50;;
27145;SDS011;17980;51.744;7.190;2023-04-24T15:00:24;4.70;;;2.23;;
27145;SDS011;17980;51.744;7.190;2023-04-24T15:02:51;1.47;;;1.00;;
27145;SDS011;17980;51.744;7.190;2023-04-24T15:05:19;18.60;;;10.67;;
27145;SDS011;17980;51.744;7.190;2023-04-24T15:07:46;12.60;;;6.40;;
27145;SDS011;17980;51.744;7.190;2023-04-24T15:10:14;14.00;;;10.10;;
27145;SDS011;17980;51.744;7.190;2023-04-24T15:12:54;1.73;;;0.90;;
27145;SDS011;17980;51.744;7.190;2023-04-24T15:15:24;1.60;;;0.70;;
27145;SDS011;17980;51.744;7.190;2023-04-24T15:18:03;2.37;;;0.80;;
27145;SDS011;17980;51.744;7.190;2023-04-24T15:20:44;6.20;;;1.00;;
27145;SDS011;17980;51.744;7.190;2023-04-24T15:23:12;1.67;;;1.00;;
27145;SDS011;17980;51.744;7.190;2023-04-24T15:25:41;3.63;;;0.90;;
27145;SDS011;17980;51.744;7.190;2023-04-24T15:28:18;3.40;;;1.10;;
27145;SDS011;17980;51.744;7.190;2023-04-24T15:30:48;5.93;;;1.10;;
27145;SDS011;17980;51.744;7.190;2023-04-24T15:33:28;2.07;;;1.10;;
27145;SDS011;17980;51.744;7.190;2023-04-24T15:35:58;4.83;;;1.30;;